sensor_id;sensor_type;location;lat;lon;timestamp;P1;durP1;ratioP1;P2;durP2;ratioP2
15112;SDS011;7657;50.140;7.076;2023-06-10T00:01:51;7.05;;;6.35;;
15112;SDS011;7657;50.140;7.076;2023-06-10T00:04:20;8.40;;;6.72;;
15112;SDS011;7657;50.140;7.076;2023-06-10T00:06:47;7.63;;;6.15;;
15112;SDS011;7657;50.140;7.076;2023-06-10T00:09:14;6.97;;;6.28;;
15112;SDS011;7657;50.140;7.076;2023-06-10T00:11:43;8.25;;;5.78;;
15112;SDS011;7657;50.140;7.076;2023-06-10T00:14:10;7.53;;;6.70;;
15112;SDS011;7657;50.140;7.076;2023-06-10T00:16:37;7.32;;;6.40;;
15112;SDS011;7657;50.140;7.076;2023-06-10T00:19:06;7.85;;;6.80;;
15112;SDS011;7657;50.140;7.076;2023-06-10T00:21:34;8.50;;;6.70;;
15112;SDS011;7657;50.140;7.076;2023-06-10T00:24:02;8.25;;;6.45;;
15112;SDS011;7657;50.140;7.076;2023-06-10T00:26:30;6.72;;;6.07;;
15112;SDS011;7657;50.140;7.076;2023-06-10T00:28:57;7.55;;;6.20;;
15112;SDS011;7657;50.140;7.076;2023-06-10T00:31:24;7.47;;;6.68;;
15112;SDS011;7657;50.140;7.076;2023-06-10T00:33:52;8.15;;;6.47;;
15112;SDS011;7657;50.140;7.076;2023-06-10T00:36:20;7.25;;;6.55;;
15112;SDS011;7657;50.140;7.076;2023-06-10T00:38:47;6.95;;;6.25;;
15112;SDS011;7657;50.140;7.076;2023-06-10T00:41:14;7.45;;;6.43;;
15112;SDS011;7657;50.140;7.076;2023-06-10T00:43:41;7.28;;;6.50;;
15112;SDS011;7657;50.140;7.076;2023-06-10T00:46:08;7.05;;;6.45;;
15112;SDS011;7657;50.140;7.076;2023-06-10T00:48:36;7.68;;;6.43;;
15112;SDS011;7657;50.140;7.076;2023-06-10T00:51:04;10.35;;;6.97;;
15112;SDS011;7657;50.140;7.076;2023-06-10T00:53:35;6.85;;;6.15;;
15112;SDS011;7657;50.140;7.076;2023-06-10T00:56:03;8.35;;;6.53;;
15112;SDS011;7657;50.140;7.076;2023-06-10T00:58:30;9.52;;;6.53;;
15112;SDS011;7657;50.140;7.076;2023-06-10T01:00:57;9.55;;;6.10;;
15112;SDS011;7657;50.140;7.076;2023-06-10T01:03:24;7.03;;;6.05;;
15112;SDS011;7657;50.140;7.076;2023-06-10T01:05:53;7.43;;;6.30;;
15112;SDS011;7657;50.140;7.076;2023-06-10T01:08:33;7.18;;;6.25;;
15112;SDS011;7657;50.140;7.076;2023-06-10T01:11:07;8.77;;;6.55;;
15112;SDS011;7657;50.140;7.076;2023-06-10T01:13:40;8.90;;;6.75;;
15112;SDS011;7657;50.140;7.076;2023-06-10T01:16:08;7.05;;;6.22;;
15112;SDS011;7657;50.140;7.076;2023-06-10T01:18:36;7.05;;;6.18;;
15112;SDS011;7657;50.140;7.076;2023-06-10T01:21:03;7.13;;;6.07;;
15112;SDS011;7657;50.140;7.076;2023-06-10T01:23:34;7.68;;;6.13;;
15112;SDS011;7657;50.140;7.076;2023-06-10T01:26:02;8.45;;;6.70;;
15112;SDS011;7657;50.140;7.076;2023-06-10T01:28:33;6.97;;;6.03;;
15112;SDS011;7657;50.140;7.076;2023-06-10T01:31:08;8.40;;;6.43;;
15112;SDS011;7657;50.140;7.076;2023-06-10T01:33:41;7.13;;;6.25;;
15112;SDS011;7657;50.140;7.076;2023-06-10T01:36:11;9.48;;;6.50;;
15112;SDS011;7657;50.140;7.076;2023-06-10T01:38:42;8.65;;;6.88;;
15112;SDS011;7657;50.140;7.076;2023-06-10T01:41:10;7.30;;;6.57;;
15112;SDS011;7657;50.140;7.076;2023-06-10T01:43:38;7.50;;;6.80;;
15112;SDS011;7657;50.140;7.076;2023-06-10T01:46:06;7.30;;;6.40;;
15112;SDS011;7657;50.140;7.076;2023-06-10T01:48:33;7.82;;;6.60;;
15112;SDS011;7657;50.140;7.076;2023-06-10T01:51:00;6.90;;;6.20;;
15112;SDS011;7657;50.140;7.076;2023-06-10T01:53:27;7.72;;;5.97;;
15112;SDS011;7657;50.140;7.076;2023-06-10T01:55:55;10.10;;;6.13;;
15112;SDS011;7657;50.140;7.076;2023-06-10T01:58:22;6.97;;;6.20;;
15112;SDS011;7657;50.140;7.076;2023-06-10T02:00:49;6.93;;;6.20;;
15112;SDS011;7657;50.140;7.076;2023-06-10T02:03:16;6.53;;;5.90;;
15112;SDS011;7657;50.140;7.076;2023-06-10T02:05:43;9.32;;;6.47;;
15112;SDS011;7657;50.140;7.076;2023-06-10T02:08:10;8.63;;;6.47;;
15112;SDS011;7657;50.140;7.076;2023-06-10T02:10:37;7.82;;;6.18;;
15112;SDS011;7657;50.140;7.076;2023-06-10T02:13:05;7.50;;;6.70;;
15112;SDS011;7657;50.140;7.076;2023-06-10T02:15:32;6.38;;;5.78;;
15112;SDS011;7657;50.140;7.076;2023-06-10T02:18:00;6.95;;;6.25;;
15112;SDS011;7657;50.140;7.076;2023-06-10T02:20:27;8.23;;;6.20;;
15112;SDS011;7657;50.140;7.076;2023-06-10T02:22:54;7.50;;;6.43;;
15112;SDS011;7657;50.140;7.076;2023-06-10T02:25:21;7.43;;;6.72;;
15112;SDS011;7657;50.140;7.076;2023-06-10T02:27:48;8.25;;;7.18;;
15112;SDS011;7657;50.140;7.076;2023-06-10T02:30:16;8.27;;;6.45;;
15112;SDS011;7657;50.140;7.076;2023-06-10T02:32:43;8.13;;;6.40;;
15112;SDS011;7657;50.140;7.076;2023-06-10T02:35:13;9.52;;;6.35;;
15112;SDS011;7657;50.140;7.076;2023-06-10T02:37:40;8.85;;;6.60;;
15112;SDS011;7657;50.140;7.076;2023-06-10T02:40:07;6.82;;;6.05;;
15112;SDS011;7657;50.140;7.076;2023-06-10T02:42:35;7.55;;;6.68;;
15112;SDS011;7657;50.140;7.076;2023-06-10T02:45:02;8.27;;;6.70;;
15112;SDS011;7657;50.140;7.076;2023-06-10T02:47:30;7.40;;;6.47;;
15112;SDS011;7657;50.140;7.076;2023-06-10T02:49:57;7.45;;;6.65;;
15112;SDS011;7657;50.140;7.076;2023-06-10T02:52:24;8.90;;;6.72;;
15112;SDS011;7657;50.140;7.076;2023-06-10T02:54:51;7.53;;;6.72;;
15112;SDS011;7657;50.140;7.076;2023-06-10T02:57:18;7.80;;;6.40;;
15112;SDS011;7657;50.140;7.076;2023-06-10T02:59:45;8.80;;;7.00;;
15112;SDS011;7657;50.140;7.076;2023-06-10T03:02:12;7.63;;;6.80;;
15112;SDS011;7657;50.140;7.076;2023-06-10T03:04:41;7.18;;;6.45;;
15112;SDS011;7657;50.140;7.076;2023-06-10T03:07:08;8.15;;;6.97;;
15112;SDS011;7657;50.140;7.076;2023-06-10T03:09:36;8.30;;;6.07;;
15112;SDS011;7657;50.140;7.076;2023-06-10T03:12:03;7.90;;;6.68;;
15112;SDS011;7657;50.140;7.076;2023-06-10T03:14:31;7.10;;;6.40;;
15112;SDS011;7657;50.140;7.076;2023-06-10T03:16:59;8.60;;;6.65;;
15112;SDS011;7657;50.140;7.076;2023-06-10T03:19:26;7.97;;;6.75;;
15112;SDS011;7657;50.140;7.076;2023-06-10T03:21:57;7.13;;;6.43;;
15112;SDS011;7657;50.140;7.076;2023-06-10T03:24:33;7.97;;;6.65;;
15112;SDS011;7657;50.140;7.076;2023-06-10T03:27:00;7.40;;;6.68;;
15112;SDS011;7657;50.140;7.076;2023-06-10T03:29:29;8.55;;;6.75;;
15112;SDS011;7657;50.140;7.076;2023-06-10T03:31:57;7.50;;;6.70;;
15112;SDS011;7657;50.140;7.076;2023-06-10T03:34:24;7.75;;;6.47;;
15112;SDS011;7657;50.140;7.076;2023-06-10T03:36:51;8.20;;;6.30;;
15112;SDS011;7657;50.140;7.076;2023-06-10T03:39:19;6.60;;;5.90;;
15112;SDS011;7657;50.140;7.076;2023-06-10T03:41:46;7.03;;;6.32;;
15112;SDS011;7657;50.140;7.076;2023-06-10T03:44:13;6.70;;;6.10;;
15112;SDS011;7657;50.140;7.076;2023-06-10T03:46:40;7.05;;;6.43;;
15112;SDS011;7657;50.140;7.076;2023-06-10T03:49:07;7.03;;;6.40;;
15112;SDS011;7657;50.140;7.076;2023-06-10T03:51:34;8.93;;;5.70;;
15112;SDS011;7657;50.140;7.076;2023-06-10T03:54:01;7.15;;;6.00;;
15112;SDS011;7657;50.140;7.076;2023-06-10T03:56:30;7.32;;;6.38;;
15112;SDS011;7657;50.140;7.076;2023-06-10T03:58:57;7.90;;;6.43;;
15112;SDS011;7657;50.140;7.076;2023-06-10T04:01:25;7.22;;;6.15;;
15112;SDS011;7657;50.140;7.076;2023-06-10T04:03:53;7.75;;;6.32;;
15112;SDS011;7657;50.140;7.076;2023-06-10T04:06:20;7.03;;;5.88;;
15112;SDS011;7657;50.140;7.076;2023-06-10T04:08:50;6.97;;;5.90;;
15112;SDS011;7657;50.140;7.076;2023-06-10T04:11:17;9.88;;;6.43;;
15112;SDS011;7657;50.140;7.076;2023-06-10T04:13:45;9.77;;;5.65;;
15112;SDS011;7657;50.140;7.076;2023-06-10T04:16:12;7.68;;;5.78;;
15112;SDS011;7657;50.140;7.076;2023-06-10T04:18:39;7.10;;;6.05;;
15112;SDS011;7657;50.140;7.076;2023-06-10T04:21:06;6.72;;;6.03;;
15112;SDS011;7657;50.140;7.076;2023-06-10T04:23:34;8.63;;;6.13;;
15112;SDS011;7657;50.140;7.076;2023-06-10T04:26:01;6.95;;;6.25;;
15112;SDS011;7657;50.140;7.076;2023-06-10T04:28:30;7.18;;;6.13;;
15112;SDS011;7657;50.140;7.076;2023-06-10T04:30:58;6.28;;;5.63;;
15112;SDS011;7657;50.140;7.076;2023-06-10T04:33:25;7.05;;;5.63;;
15112;SDS011;7657;50.140;7.076;2023-06-10T04:35:53;6.85;;;5.80;;
15112;SDS011;7657;50.140;7.076;2023-06-10T04:38:20;8.15;;;6.07;;
15112;SDS011;7657;50.140;7.076;2023-06-10T04:40:47;6.80;;;5.90;;
15112;SDS011;7657;50.140;7.076;2023-06-10T04:43:14;7.90;;;6.28;;
15112;SDS011;7657;50.140;7.076;2023-06-10T04:45:41;7.90;;;5.95;;
15112;SDS011;7657;50.140;7.076;2023-06-10T04:48:11;7.47;;;6.05;;
15112;SDS011;7657;50.140;7.076;2023-06-10T04:50:38;9.30;;;6.18;;
15112;SDS011;7657;50.140;7.076;2023-06-10T04:53:05;8.15;;;6.05;;
15112;SDS011;7657;50.140;7.076;2023-06-10T04:55:32;8.63;;;6.03;;
15112;SDS011;7657;50.140;7.076;2023-06-10T04:57:59;6.22;;;5.65;;
15112;SDS011;7657;50.140;7.076;2023-06-10T05:00:26;8.40;;;6.43;;
15112;SDS011;7657;50.140;7.076;2023-06-10T05:02:53;10.00;;;6.10;;
15112;SDS011;7657;50.140;7.076;2023-06-10T05:05:22;6.78;;;5.68;;
15112;SDS011;7657;50.140;7.076;2023-06-10T05:07:49;6.75;;;5.80;;
15112;SDS011;7657;50.140;7.076;2023-06-10T05:10:16;8.13;;;6.20;;
15112;SDS011;7657;50.140;7.076;2023-06-10T05:12:43;6.68;;;5.97;;
15112;SDS011;7657;50.140;7.076;2023-06-10T05:15:10;7.55;;;5.97;;
15112;SDS011;7657;50.140;7.076;2023-06-10T05:17:37;6.97;;;6.10;;
15112;SDS011;7657;50.140;7.076;2023-06-10T05:20:04;6.95;;;5.65;;
15112;SDS011;7657;50.140;7.076;2023-06-10T05:22:34;7.03;;;5.97;;
15112;SDS011;7657;50.140;7.076;2023-06-10T05:25:01;6.32;;;5.63;;
15112;SDS011;7657;50.140;7.076;2023-06-10T05:27:28;6.88;;;6.00;;
15112;SDS011;7657;50.140;7.076;2023-06-10T05:29:55;7.53;;;6.07;;
15112;SDS011;7657;50.140;7.076;2023-06-10T05:32:22;5.95;;;5.43;;
15112;SDS011;7657;50.140;7.076;2023-06-10T05:34:49;8.32;;;6.43;;
15112;SDS011;7657;50.140;7.076;2023-06-10T05:37:16;6.82;;;5.70;;
15112;SDS011;7657;50.140;7.076;2023-06-10T05:39:44;7.35;;;5.75;;
15112;SDS011;7657;50.140;7.076;2023-06-10T05:42:11;8.40;;;6.07;;
15112;SDS011;7657;50.140;7.076;2023-06-10T05:44:37;6.63;;;5.90;;
15112;SDS011;7657;50.140;7.076;2023-06-10T05:47:05;7.22;;;5.32;;
15112;SDS011;7657;50.140;7.076;2023-06-10T05:49:32;6.90;;;5.72;;
15112;SDS011;7657;50.140;7.076;2023-06-10T05:51:59;8.18;;;6.32;;
15112;SDS011;7657;50.140;7.076;2023-06-10T05:54:26;8.50;;;6.05;;
15112;SDS011;7657;50.140;7.076;2023-06-10T05:56:54;6.47;;;5.88;;
15112;SDS011;7657;50.140;7.076;2023-06-10T05:59:21;6.80;;;6.10;;
15112;SDS011;7657;50.140;7.076;2023-06-10T06:01:48;6.65;;;5.95;;
15112;SDS011;7657;50.140;7.076;2023-06-10T06:04:15;7.07;;;6.00;;
15112;SDS011;7657;50.140;7.076;2023-06-10T06:06:42;6.22;;;5.63;;
15112;SDS011;7657;50.140;7.076;2023-06-10T06:09:09;6.45;;;5.70;;
15112;SDS011;7657;50.140;7.076;2023-06-10T06:11:36;5.90;;;5.30;;
15112;SDS011;7657;50.140;7.076;2023-06-10T06:14:04;6.95;;;5.43;;
15112;SDS011;7657;50.140;7.076;2023-06-10T06:16:31;6.57;;;5.38;;
15112;SDS011;7657;50.140;7.076;2023-06-10T06:18:58;5.78;;;5.10;;
15112;SDS011;7657;50.140;7.076;2023-06-10T06:21:25;7.30;;;5.55;;
15112;SDS011;7657;50.140;7.076;2023-06-10T06:23:52;6.55;;;5.43;;
15112;SDS011;7657;50.140;7.076;2023-06-10T06:26:19;6.22;;;5.55;;
15112;SDS011;7657;50.140;7.076;2023-06-10T06:28:46;7.90;;;5.72;;
15112;SDS011;7657;50.140;7.076;2023-06-10T06:31:14;6.40;;;5.38;;
15112;SDS011;7657;50.140;7.076;2023-06-10T06:33:41;5.88;;;5.28;;
15112;SDS011;7657;50.140;7.076;2023-06-10T06:36:08;6.28;;;5.40;;
15112;SDS011;7657;50.140;7.076;2023-06-10T06:38:35;6.80;;;5.55;;
15112;SDS011;7657;50.140;7.076;2023-06-10T06:41:02;5.28;;;4.75;;
15112;SDS011;7657;50.140;7.076;2023-06-10T06:43:31;6.30;;;5.68;;
15112;SDS011;7657;50.140;7.076;2023-06-10T06:45:58;7.28;;;5.55;;
15112;SDS011;7657;50.140;7.076;2023-06-10T06:48:26;7.43;;;5.28;;
15112;SDS011;7657;50.140;7.076;2023-06-10T06:50:53;6.68;;;5.43;;
15112;SDS011;7657;50.140;7.076;2023-06-10T06:53:21;8.65;;;5.72;;
15112;SDS011;7657;50.140;7.076;2023-06-10T06:55:48;7.75;;;5.97;;
15112;SDS011;7657;50.140;7.076;2023-06-10T06:58:15;6.65;;;5.85;;
15112;SDS011;7657;50.140;7.076;2023-06-10T07:00:42;6.97;;;5.60;;
15112;SDS011;7657;50.140;7.076;2023-06-10T07:03:08;7.57;;;5.85;;
15112;SDS011;7657;50.140;7.076;2023-06-10T07:05:37;6.72;;;5.47;;
15112;SDS011;7657;50.140;7.076;2023-06-10T07:08:04;7.00;;;5.57;;
15112;SDS011;7657;50.140;7.076;2023-06-10T07:10:31;6.47;;;5.85;;
15112;SDS011;7657;50.140;7.076;2023-06-10T07:12:58;6.95;;;5.57;;
15112;SDS011;7657;50.140;7.076;2023-06-10T07:15:25;5.45;;;4.95;;
15112;SDS011;7657;50.140;7.076;2023-06-10T07:17:52;6.57;;;5.85;;
15112;SDS011;7657;50.140;7.076;2023-06-10T07:20:20;6.18;;;5.55;;
15112;SDS011;7657;50.140;7.076;2023-06-10T07:22:48;5.63;;;5.00;;
15112;SDS011;7657;50.140;7.076;2023-06-10T07:25:15;5.57;;;5.05;;
15112;SDS011;7657;50.140;7.076;2023-06-10T07:27:42;8.77;;;5.43;;
15112;SDS011;7657;50.140;7.076;2023-06-10T07:30:09;5.72;;;5.22;;
15112;SDS011;7657;50.140;7.076;2023-06-10T07:32:37;7.05;;;5.72;;
15112;SDS011;7657;50.140;7.076;2023-06-10T07:35:06;5.80;;;5.22;;
15112;SDS011;7657;50.140;7.076;2023-06-10T07:37:35;7.60;;;5.80;;
15112;SDS011;7657;50.140;7.076;2023-06-10T07:40:03;8.15;;;5.63;;
15112;SDS011;7657;50.140;7.076;2023-06-10T07:42:31;7.28;;;5.57;;
15112;SDS011;7657;50.140;7.076;2023-06-10T07:44:58;6.90;;;5.45;;
15112;SDS011;7657;50.140;7.076;2023-06-10T07:47:25;7.10;;;5.85;;
15112;SDS011;7657;50.140;7.076;2023-06-10T07:49:52;6.60;;;5.50;;
15112;SDS011;7657;50.140;7.076;2023-06-10T07:52:19;6.72;;;6.00;;
15112;SDS011;7657;50.140;7.076;2023-06-10T07:54:46;6.35;;;5.60;;
15112;SDS011;7657;50.140;7.076;2023-06-10T07:57:14;6.55;;;5.85;;
15112;SDS011;7657;50.140;7.076;2023-06-10T07:59:41;5.75;;;5.20;;
15112;SDS011;7657;50.140;7.076;2023-06-10T08:02:09;6.75;;;6.10;;
15112;SDS011;7657;50.140;7.076;2023-06-10T08:04:36;5.90;;;5.13;;
15112;SDS011;7657;50.140;7.076;2023-06-10T08:07:03;6.35;;;5.45;;
15112;SDS011;7657;50.140;7.076;2023-06-10T08:09:30;6.00;;;5.40;;
15112;SDS011;7657;50.140;7.076;2023-06-10T08:11:57;6.35;;;5.57;;
15112;SDS011;7657;50.140;7.076;2023-06-10T08:14:25;6.05;;;5.50;;
15112;SDS011;7657;50.140;7.076;2023-06-10T08:16:52;6.53;;;5.80;;
15112;SDS011;7657;50.140;7.076;2023-06-10T08:19:19;6.40;;;5.72;;
15112;SDS011;7657;50.140;7.076;2023-06-10T08:21:46;5.85;;;5.25;;
15112;SDS011;7657;50.140;7.076;2023-06-10T08:24:13;11.55;;;6.43;;
15112;SDS011;7657;50.140;7.076;2023-06-10T08:26:41;6.07;;;5.47;;
15112;SDS011;7657;50.140;7.076;2023-06-10T08:29:08;5.75;;;5.25;;
15112;SDS011;7657;50.140;7.076;2023-06-10T08:31:36;6.25;;;5.53;;
15112;SDS011;7657;50.140;7.076;2023-06-10T08:34:03;7.85;;;5.40;;
15112;SDS011;7657;50.140;7.076;2023-06-10T08:36:30;5.93;;;5.32;;
15112;SDS011;7657;50.140;7.076;2023-06-10T08:38:57;6.18;;;5.57;;
15112;SDS011;7657;50.140;7.076;2023-06-10T08:41:23;8.50;;;6.30;;
15112;SDS011;7657;50.140;7.076;2023-06-10T08:43:58;5.95;;;5.45;;
15112;SDS011;7657;50.140;7.076;2023-06-10T08:46:29;8.15;;;6.20;;
15112;SDS011;7657;50.140;7.076;2023-06-10T08:49:00;6.80;;;5.50;;
15112;SDS011;7657;50.140;7.076;2023-06-10T08:51:31;5.70;;;5.20;;
15112;SDS011;7657;50.140;7.076;2023-06-10T08:54:01;6.32;;;5.40;;
15112;SDS011;7657;50.140;7.076;2023-06-10T08:56:31;6.00;;;5.30;;
15112;SDS011;7657;50.140;7.076;2023-06-10T08:59:01;5.50;;;5.00;;
15112;SDS011;7657;50.140;7.076;2023-06-10T09:01:28;8.07;;;5.30;;
15112;SDS011;7657;50.140;7.076;2023-06-10T09:03:56;8.77;;;5.97;;
15112;SDS011;7657;50.140;7.076;2023-06-10T09:06:26;6.63;;;5.70;;
15112;SDS011;7657;50.140;7.076;2023-06-10T09:08:53;7.00;;;5.18;;
15112;SDS011;7657;50.140;7.076;2023-06-10T09:11:20;7.28;;;5.47;;
15112;SDS011;7657;50.140;7.076;2023-06-10T09:13:47;7.45;;;5.88;;
15112;SDS011;7657;50.140;7.076;2023-06-10T09:16:14;6.60;;;5.60;;
15112;SDS011;7657;50.140;7.076;2023-06-10T09:18:41;6.40;;;5.60;;
15112;SDS011;7657;50.140;7.076;2023-06-10T09:21:08;6.70;;;5.63;;
15112;SDS011;7657;50.140;7.076;2023-06-10T09:23:37;5.68;;;5.13;;
15112;SDS011;7657;50.140;7.076;2023-06-10T09:26:08;6.82;;;5.25;;
15112;SDS011;7657;50.140;7.076;2023-06-10T09:28:36;5.50;;;4.95;;
15112;SDS011;7657;50.140;7.076;2023-06-10T09:31:04;8.15;;;6.38;;
15112;SDS011;7657;50.140;7.076;2023-06-10T09:33:32;6.65;;;5.55;;
15112;SDS011;7657;50.140;7.076;2023-06-10T09:36:02;6.47;;;5.68;;
15112;SDS011;7657;50.140;7.076;2023-06-10T09:38:30;7.55;;;5.95;;
15112;SDS011;7657;50.140;7.076;2023-06-10T09:41:00;5.60;;;5.10;;
15112;SDS011;7657;50.140;7.076;2023-06-10T09:43:38;7.13;;;5.55;;
15112;SDS011;7657;50.140;7.076;2023-06-10T09:46:06;5.90;;;5.30;;
15112;SDS011;7657;50.140;7.076;2023-06-10T09:48:39;5.47;;;4.97;;
15112;SDS011;7657;50.140;7.076;2023-06-10T09:51:08;6.30;;;5.70;;
15112;SDS011;7657;50.140;7.076;2023-06-10T09:53:36;6.60;;;5.88;;
15112;SDS011;7657;50.140;7.076;2023-06-10T09:56:04;5.88;;;5.38;;
15112;SDS011;7657;50.140;7.076;2023-06-10T09:58:35;6.13;;;5.25;;
15112;SDS011;7657;50.140;7.076;2023-06-10T10:01:06;6.97;;;4.55;;
15112;SDS011;7657;50.140;7.076;2023-06-10T10:03:42;5.65;;;5.03;;
15112;SDS011;7657;50.140;7.076;2023-06-10T10:06:11;5.93;;;5.00;;
15112;SDS011;7657;50.140;7.076;2023-06-10T10:08:38;5.43;;;4.93;;
15112;SDS011;7657;50.140;7.076;2023-06-10T10:11:07;6.97;;;4.93;;
15112;SDS011;7657;50.140;7.076;2023-06-10T10:13:34;7.00;;;4.75;;
15112;SDS011;7657;50.140;7.076;2023-06-10T10:16:04;6.65;;;4.75;;
15112;SDS011;7657;50.140;7.076;2023-06-10T10:18:32;7.40;;;4.45;;
15112;SDS011;7657;50.140;7.076;2023-06-10T10:21:04;5.10;;;4.28;;
15112;SDS011;7657;50.140;7.076;2023-06-10T10:23:38;5.45;;;4.50;;
15112;SDS011;7657;50.140;7.076;2023-06-10T10:26:09;5.85;;;4.85;;
15112;SDS011;7657;50.140;7.076;2023-06-10T10:28:38;6.22;;;4.90;;
15112;SDS011;7657;50.140;7.076;2023-06-10T10:31:11;6.43;;;4.85;;
15112;SDS011;7657;50.140;7.076;2023-06-10T10:33:42;6.40;;;4.43;;
15112;SDS011;7657;50.140;7.076;2023-06-10T10:36:18;5.65;;;4.28;;
15112;SDS011;7657;50.140;7.076;2023-06-10T10:38:45;4.93;;;4.43;;
15112;SDS011;7657;50.140;7.076;2023-06-10T10:41:15;7.28;;;4.40;;
15112;SDS011;7657;50.140;7.076;2023-06-10T10:43:44;7.15;;;4.82;;
15112;SDS011;7657;50.140;7.076;2023-06-10T10:46:13;5.78;;;4.30;;
15112;SDS011;7657;50.140;7.076;2023-06-10T10:48:42;6.10;;;4.47;;
15112;SDS011;7657;50.140;7.076;2023-06-10T10:51:10;5.65;;;4.50;;
15112;SDS011;7657;50.140;7.076;2023-06-10T10:53:37;4.93;;;4.20;;
15112;SDS011;7657;50.140;7.076;2023-06-10T10:56:05;6.20;;;4.60;;
15112;SDS011;7657;50.140;7.076;2023-06-10T10:58:34;6.18;;;4.72;;
15112;SDS011;7657;50.140;7.076;2023-06-10T11:01:09;5.03;;;3.97;;
15112;SDS011;7657;50.140;7.076;2023-06-10T11:03:41;4.72;;;4.22;;
15112;SDS011;7657;50.140;7.076;2023-06-10T11:06:13;6.88;;;3.97;;
15112;SDS011;7657;50.140;7.076;2023-06-10T11:08:47;4.82;;;3.95;;
15112;SDS011;7657;50.140;7.076;2023-06-10T11:11:19;6.72;;;3.92;;
15112;SDS011;7657;50.140;7.076;2023-06-10T11:14:08;4.45;;;3.75;;
15112;SDS011;7657;50.140;7.076;2023-06-10T11:16:38;4.50;;;3.67;;
15112;SDS011;7657;50.140;7.076;2023-06-10T11:19:07;5.72;;;4.18;;
15112;SDS011;7657;50.140;7.076;2023-06-10T11:21:37;4.50;;;4.10;;
15112;SDS011;7657;50.140;7.076;2023-06-10T11:24:24;4.43;;;3.80;;
15112;SDS011;7657;50.140;7.076;2023-06-10T11:26:52;5.07;;;3.60;;
15112;SDS011;7657;50.140;7.076;2023-06-10T11:29:20;5.45;;;3.70;;
15112;SDS011;7657;50.140;7.076;2023-06-10T11:31:51;4.43;;;3.78;;
15112;SDS011;7657;50.140;7.076;2023-06-10T11:34:23;3.97;;;3.40;;
15112;SDS011;7657;50.140;7.076;2023-06-10T11:36:52;4.95;;;3.88;;
15112;SDS011;7657;50.140;7.076;2023-06-10T11:39:20;5.47;;;3.78;;
15112;SDS011;7657;50.140;7.076;2023-06-10T11:41:51;5.13;;;3.58;;
15112;SDS011;7657;50.140;7.076;2023-06-10T11:44:20;4.00;;;3.65;;
15112;SDS011;7657;50.140;7.076;2023-06-10T11:46:47;3.90;;;3.20;;
15112;SDS011;7657;50.140;7.076;2023-06-10T11:49:15;4.28;;;3.88;;
15112;SDS011;7657;50.140;7.076;2023-06-10T11:51:42;5.35;;;3.67;;
15112;SDS011;7657;50.140;7.076;2023-06-10T11:54:14;4.60;;;3.80;;
15112;SDS011;7657;50.140;7.076;2023-06-10T11:56:42;4.10;;;3.78;;
15112;SDS011;7657;50.140;7.076;2023-06-10T11:59:09;4.95;;;3.92;;
15112;SDS011;7657;50.140;7.076;2023-06-10T12:01:38;4.72;;;4.32;;
15112;SDS011;7657;50.140;7.076;2023-06-10T12:04:08;5.28;;;3.70;;
15112;SDS011;7657;50.140;7.076;2023-06-10T12:06:40;4.90;;;4.35;;
15112;SDS011;7657;50.140;7.076;2023-06-10T12:09:13;4.60;;;4.10;;
15112;SDS011;7657;50.140;7.076;2023-06-10T12:11:40;4.60;;;4.20;;
15112;SDS011;7657;50.140;7.076;2023-06-10T12:14:09;5.47;;;3.90;;
15112;SDS011;7657;50.140;7.076;2023-06-10T12:16:37;6.95;;;4.47;;
15112;SDS011;7657;50.140;7.076;2023-06-10T12:19:05;4.20;;;3.80;;
15112;SDS011;7657;50.140;7.076;2023-06-10T12:21:32;4.72;;;4.22;;
15112;SDS011;7657;50.140;7.076;2023-06-10T12:24:03;5.15;;;4.60;;
15112;SDS011;7657;50.140;7.076;2023-06-10T12:26:34;5.28;;;3.90;;
15112;SDS011;7657;50.140;7.076;2023-06-10T12:29:11;5.75;;;4.15;;
15112;SDS011;7657;50.140;7.076;2023-06-10T12:31:57;5.07;;;4.20;;
15112;SDS011;7657;50.140;7.076;2023-06-10T12:34:32;5.38;;;4.10;;
15112;SDS011;7657;50.140;7.076;2023-06-10T12:37:01;4.93;;;3.83;;
15112;SDS011;7657;50.140;7.076;2023-06-10T12:39:29;6.65;;;4.03;;
15112;SDS011;7657;50.140;7.076;2023-06-10T12:41:56;4.38;;;4.00;;
15112;SDS011;7657;50.140;7.076;2023-06-10T12:44:30;4.47;;;4.07;;
15112;SDS011;7657;50.140;7.076;2023-06-10T12:46:59;4.32;;;3.75;;
15112;SDS011;7657;50.140;7.076;2023-06-10T12:49:26;4.55;;;4.13;;
15112;SDS011;7657;50.140;7.076;2023-06-10T12:51:53;5.00;;;4.00;;
15112;SDS011;7657;50.140;7.076;2023-06-10T12:54:20;5.35;;;4.10;;
15112;SDS011;7657;50.140;7.076;2023-06-10T12:56:48;5.97;;;4.15;;
15112;SDS011;7657;50.140;7.076;2023-06-10T12:59:15;6.88;;;4.10;;
15112;SDS011;7657;50.140;7.076;2023-06-10T13:01:42;4.45;;;4.00;;
15112;SDS011;7657;50.140;7.076;2023-06-10T13:04:10;4.18;;;3.75;;
15112;SDS011;7657;50.140;7.076;2023-06-10T13:06:37;6.32;;;4.20;;
15112;SDS011;7657;50.140;7.076;2023-06-10T13:09:05;7.00;;;4.60;;
15112;SDS011;7657;50.140;7.076;2023-06-10T13:11:33;6.78;;;4.53;;
15112;SDS011;7657;50.140;7.076;2023-06-10T13:14:00;5.22;;;4.40;;
15112;SDS011;7657;50.140;7.076;2023-06-10T13:16:29;6.38;;;3.85;;
15112;SDS011;7657;50.140;7.076;2023-06-10T13:18:56;6.10;;;4.25;;
15112;SDS011;7657;50.140;7.076;2023-06-10T13:21:25;4.43;;;3.97;;
15112;SDS011;7657;50.140;7.076;2023-06-10T13:23:52;6.25;;;4.10;;
15112;SDS011;7657;50.140;7.076;2023-06-10T13:26:19;5.55;;;4.00;;
15112;SDS011;7657;50.140;7.076;2023-06-10T13:28:46;6.63;;;4.20;;
15112;SDS011;7657;50.140;7.076;2023-06-10T13:31:13;6.63;;;3.88;;
15112;SDS011;7657;50.140;7.076;2023-06-10T13:33:40;4.50;;;4.10;;
15112;SDS011;7657;50.140;7.076;2023-06-10T13:36:08;6.32;;;4.05;;
15112;SDS011;7657;50.140;7.076;2023-06-10T13:38:37;4.30;;;3.90;;
15112;SDS011;7657;50.140;7.076;2023-06-10T13:41:04;4.38;;;3.97;;
15112;SDS011;7657;50.140;7.076;2023-06-10T13:43:31;4.18;;;3.78;;
15112;SDS011;7657;50.140;7.076;2023-06-10T13:45:58;4.10;;;3.67;;
15112;SDS011;7657;50.140;7.076;2023-06-10T13:48:25;4.32;;;3.75;;
15112;SDS011;7657;50.140;7.076;2023-06-10T13:50:52;4.20;;;3.80;;
15112;SDS011;7657;50.140;7.076;2023-06-10T13:53:19;4.10;;;3.70;;
15112;SDS011;7657;50.140;7.076;2023-06-10T13:55:47;4.15;;;3.72;;
15112;SDS011;7657;50.140;7.076;2023-06-10T13:58:14;3.65;;;3.35;;
15112;SDS011;7657;50.140;7.076;2023-06-10T14:00:41;3.80;;;3.50;;
15112;SDS011;7657;50.140;7.076;2023-06-10T14:03:07;4.25;;;3.85;;
15112;SDS011;7657;50.140;7.076;2023-06-10T14:05:34;4.80;;;3.50;;
15112;SDS011;7657;50.140;7.076;2023-06-10T14:08:01;4.03;;;3.60;;
15112;SDS011;7657;50.140;7.076;2023-06-10T14:10:28;3.75;;;3.45;;
15112;SDS011;7657;50.140;7.076;2023-06-10T14:12:57;5.88;;;4.13;;
15112;SDS011;7657;50.140;7.076;2023-06-10T14:15:24;4.28;;;3.88;;
15112;SDS011;7657;50.140;7.076;2023-06-10T14:17:50;4.00;;;3.70;;
15112;SDS011;7657;50.140;7.076;2023-06-10T14:20:17;4.15;;;3.85;;
15112;SDS011;7657;50.140;7.076;2023-06-10T14:22:44;4.03;;;3.63;;
15112;SDS011;7657;50.140;7.076;2023-06-10T14:25:11;4.45;;;4.05;;
15112;SDS011;7657;50.140;7.076;2023-06-10T14:27:38;3.80;;;3.50;;
15112;SDS011;7657;50.140;7.076;2023-06-10T14:30:07;4.45;;;4.05;;
15112;SDS011;7657;50.140;7.076;2023-06-10T14:32:34;3.80;;;3.50;;
15112;SDS011;7657;50.140;7.076;2023-06-10T14:35:02;5.90;;;3.53;;
15112;SDS011;7657;50.140;7.076;2023-06-10T14:37:29;3.90;;;3.50;;
15112;SDS011;7657;50.140;7.076;2023-06-10T14:39:56;4.22;;;3.50;;
15112;SDS011;7657;50.140;7.076;2023-06-10T14:42:23;4.85;;;3.70;;
15112;SDS011;7657;50.140;7.076;2023-06-10T14:44:50;4.60;;;3.40;;
15112;SDS011;7657;50.140;7.076;2023-06-10T14:47:18;4.97;;;3.67;;
15112;SDS011;7657;50.140;7.076;2023-06-10T14:49:45;5.95;;;4.30;;
15112;SDS011;7657;50.140;7.076;2023-06-10T14:52:12;3.70;;;3.40;;
15112;SDS011;7657;50.140;7.076;2023-06-10T14:54:39;4.95;;;3.85;;
15112;SDS011;7657;50.140;7.076;2023-06-10T14:57:06;4.40;;;3.40;;
15112;SDS011;7657;50.140;7.076;2023-06-10T14:59:33;4.38;;;4.00;;
15112;SDS011;7657;50.140;7.076;2023-06-10T15:02:00;4.13;;;3.72;;
15112;SDS011;7657;50.140;7.076;2023-06-10T15:04:28;4.97;;;3.75;;
15112;SDS011;7657;50.140;7.076;2023-06-10T15:06:55;4.97;;;4.05;;